Time;durP1;ratioP1;P1;durP2;ratioP2;P2;SDS_P1;SDS_P2;PMS_P1;PMS_P2;Temp;Humidity;BMP_temperature;BMP_pressure;BME280_temperature;BME280_humidity;BME280_pressure;Samples;Min_cycle;Max_cycle;Signal;HPM_P1;HPM_P2
2022/11/03 00:00:00;;;;;;;0.6;0.6;;;;;;;12.3;100.0;101230;;;;
2022/11/03 00:01:00;;;;;;;0.6;0.6;;;;;;;12.2;100.0;101220;;;;
2022/11/03 00:02:00;;;;;;;0.6;0.6;;;;;;;12.2;100.0;101220;;;;
2022/11/03 00:03:00;;;;;;;1.5;1.5;;;;;;;12.2;100.0;101230;;;;
2022/11/03 00:04:00;;;;;;;1.5;1.5;;;;;;;12.2;100.0;101230;;;;
2022/11/03 00:06:03;;;;;;;1.5;1.5;;;;;;;12.2;100.0;101220;;;;
2022/11/03 00:06:03;;;;;;;1.5;1.5;;;;;;;12.2;100.0;101220;;;;
2022/11/03 00:07:00;;;;;;;1.5;1.5;;;;;;;12.3;100.0;101230;;;;
2022/11/03 00:08:01;;;;;;;1.5;1.5;;;;;;;12.3;100.0;101230;;;;
2022/11/03 00:09:01;;;;;;;1.5;1.5;;;;;;;12.3;100.0;101220;;;;
2022/11/03 00:10:00;;;;;;;1.5;1.5;;;;;;;12.3;100.0;101220;;;;
2022/11/03 00:11:00;;;;;;;1.5;1.5;;;;;;;12.3;100.0;101220;;;;
2022/11/03 00:12:00;;;;;;;1.5;1.5;;;;;;;12.3;100.0;101220;;;;
2022/11/03 00:13:00;;;;;;;1.5;1.5;;;;;;;12.3;100.0;101220;;;;
2022/11/03 00:14:00;;;;;;;1.5;1.5;;;;;;;12.3;100.0;101220;;;;
2022/11/03 00:15:00;;;;;;;1.5;1.5;;;;;;;12.3;100.0;101210;;;;
2022/11/03 00:16:00;;;;;;;1.5;1.5;;;;;;;12.3;100.0;101210;;;;
2022/11/03 00:17:00;;;;;;;1.5;1.5;;;;;;;12.2;100.0;101210;;;;
2022/11/03 00:18:00;;;;;;;1.5;1.5;;;;;;;12.2;100.0;101210;;;;
2022/11/03 00:19:00;;;;;;;1.5;1.5;;;;;;;12.2;100.0;101210;;;;
2022/11/03 00:20:00;;;;;;;1.5;1.5;;;;;;;12.2;100.0;101210;;;;
2022/11/03 00:21:00;;;;;;;1.5;1.5;;;;;;;12.2;100.0;101210;;;;
2022/11/03 00:22:00;;;;;;;1.5;1.5;;;;;;;12.2;100.0;101210;;;;
2022/11/03 00:23:00;;;;;;;4.9;2.6;;;;;;;12.3;100.0;101200;;;;
2022/11/03 00:24:01;;;;;;;4.9;2.6;;;;;;;12.3;100.0;101200;;;;
2022/11/03 00:25:00;;;;;;;4.9;2.6;;;;;;;12.2;100.0;101200;;;;
2022/11/03 00:26:09;;;;;;;4.9;2.6;;;;;;;12.2;100.0;101200;;;;
2022/11/03 00:27:00;;;;;;;4.9;2.6;;;;;;;12.2;100.0;101200;;;;
2022/11/03 00:28:00;;;;;;;4.9;2.6;;;;;;;12.2;100.0;101200;;;;
2022/11/03 00:29:01;;;;;;;4.9;2.6;;;;;;;12.2;100.0;101200;;;;
2022/11/03 00:30:00;;;;;;;4.9;2.6;;;;;;;12.2;100.0;101200;;;;
2022/11/03 00:31:01;;;;;;;4.9;2.6;;;;;;;12.3;100.0;101200;;;;
2022/11/03 00:32:00;;;;;;;4.9;2.6;;;;;;;12.3;100.0;101200;;;;
2022/11/03 00:33:00;;;;;;;4.9;2.6;;;;;;;12.3;100.0;101200;;;;
2022/11/03 00:34:00;;;;;;;4.9;2.6;;;;;;;12.3;100.0;101200;;;;
2022/11/03 00:35:00;;;;;;;4.9;2.6;;;;;;;12.2;100.0;101200;;;;
2022/11/03 00:36:00;;;;;;;4.9;2.6;;;;;;;12.2;100.0;101200;;;;
2022/11/03 00:37:00;;;;;;;4.9;2.6;;;;;;;12.2;100.0;101190;;;;
2022/11/03 00:38:00;;;;;;;4.9;2.6;;;;;;;12.2;100.0;101190;;;;
2022/11/03 00:39:00;;;;;;;4.9;2.6;;;;;;;12.2;100.0;101190;;;;
2022/11/03 00:40:00;;;;;;;4.9;2.6;;;;;;;12.2;100.0;101190;;;;
2022/11/03 00:41:00;;;;;;;4.9;2.6;;;;;;;12.2;100.0;101190;;;;
2022/11/03 00:42:00;;;;;;;4.9;2.6;;;;;;;12.2;100.0;101190;;;;
2022/11/03 00:43:00;;;;;;;0.7;0.7;;;;;;;12.3;100.0;101190;;;;
2022/11/03 00:44:00;;;;;;;0.7;0.7;;;;;;;12.3;100.0;101190;;;;
2022/11/03 00:45:00;;;;;;;0.7;0.7;;;;;;;12.2;100.0;101180;;;;
2022/11/03 00:46:00;;;;;;;0.7;0.7;;;;;;;12.2;100.0;101180;;;;
2022/11/03 00:47:00;;;;;;;0.7;0.7;;;;;;;12.3;100.0;101180;;;;
2022/11/03 00:49:00;;;;;;;0.7;0.7;;;;;;;12.2;100.0;101170;;;;
2022/11/03 00:50:00;;;;;;;0.7;0.7;;;;;;;12.2;100.0;101170;;;;
2022/11/03 00:51:05;;;;;;;0.7;0.7;;;;;;;12.2;100.0;101170;;;;
2022/11/03 00:52:00;;;;;;;0.7;0.7;;;;;;;12.2;100.0;101170;;;;
2022/11/03 00:53:00;;;;;;;0.7;0.7;;;;;;;12.3;100.0;101170;;;;
2022/11/03 00:54:00;;;;;;;0.7;0.7;;;;;;;12.3;100.0;101170;;;;
2022/11/03 00:55:00;;;;;;;0.7;0.7;;;;;;;12.1;100.0;101160;;;;
2022/11/03 00:56:00;;;;;;;0.7;0.7;;;;;;;12.1;100.0;101160;;;;
2022/11/03 00:57:00;;;;;;;0.7;0.7;;;;;;;12.3;100.0;101160;;;;
2022/11/03 00:58:00;;;;;;;0.7;0.7;;;;;;;12.3;100.0;101160;;;;
2022/11/03 00:59:00;;;;;;;0.7;0.7;;;;;;;12.2;100.0;101160;;;;
2022/11/03 01:00:00;;;;;;;0.7;0.7;;;;;;;12.2;100.0;101160;;;;
2022/11/03 01:01:01;;;;;;;0.7;0.7;;;;;;;12.2;100.0;101160;;;;
2022/11/03 01:02:00;;;;;;;0.7;0.7;;;;;;;12.2;100.0;101160;;;;
2022/11/03 01:03:00;;;;;;;0.6;0.6;;;;;;;12.3;100.0;101150;;;;
2022/11/03 01:07:00;;;;;;;0.6;0.6;;;;;;;12.1;100.0;101140;;;;
2022/11/03 01:08:00;;;;;;;0.6;0.6;;;;;;;12.1;100.0;101140;;;;
2022/11/03 01:09:00;;;;;;;0.6;0.6;;;;;;;12.2;100.0;101140;;;;
2022/11/03 01:10:00;;;;;;;0.6;0.6;;;;;;;12.2;100.0;101140;;;;
2022/11/03 01:12:00;;;;;;;0.6;0.6;;;;;;;12.1;100.0;101130;;;;
2022/11/03 01:13:00;;;;;;;0.6;0.6;;;;;;;12.1;100.0;101140;;;;
2022/11/03 01:14:00;;;;;;;0.6;0.6;;;;;;;12.1;100.0;101140;;;;
2022/11/03 01:15:00;;;;;;;0.6;0.6;;;;;;;12.2;100.0;101140;;;;
2022/11/03 01:16:00;;;;;;;0.6;0.6;;;;;;;12.2;100.0;101140;;;;
2022/11/03 01:17:00;;;;;;;0.6;0.6;;;;;;;12.2;100.0;101130;;;;
2022/11/03 01:18:00;;;;;;;0.6;0.6;;;;;;;12.2;100.0;101130;;;;
2022/11/03 01:19:00;;;;;;;0.6;0.6;;;;;;;12.1;100.0;101130;;;;
2022/11/03 01:20:00;;;;;;;0.6;0.6;;;;;;;12.1;100.0;101130;;;;
2022/11/03 01:21:00;;;;;;;0.6;0.6;;;;;;;12.1;100.0;101130;;;;
2022/11/03 01:22:00;;;;;;;0.6;0.6;;;;;;;12.1;100.0;101130;;;;
2022/11/03 01:23:00;;;;;;;0.7;0.7;;;;;;;12.2;100.0;101130;;;;
2022/11/03 01:24:01;;;;;;;0.7;0.7;;;;;;;12.2;100.0;101130;;;;
2022/11/03 01:25:00;;;;;;;0.7;0.7;;;;;;;12.3;100.0;101130;;;;
2022/11/03 01:26:04;;;;;;;0.7;0.7;;;;;;;12.3;100.0;101130;;;;
2022/11/03 01:27:00;;;;;;;0.7;0.7;;;;;;;12.2;100.0;101130;;;;
2022/11/03 01:28:01;;;;;;;0.7;0.7;;;;;;;12.2;100.0;101130;;;;
2022/11/03 01:29:00;;;;;;;0.7;0.7;;;;;;;12.2;100.0;101120;;;;
2022/11/03 01:30:00;;;;;;;0.7;0.7;;;;;;;12.2;100.0;101120;;;;
2022/11/03 01:31:02;;;;;;;0.7;0.7;;;;;;;12.2;100.0;101120;;;;
2022/11/03 01:32:00;;;;;;;0.7;0.7;;;;;;;12.2;100.0;101120;;;;
2022/11/03 01:33:00;;;;;;;0.7;0.7;;;;;;;12.2;100.0;101110;;;;
2022/11/03 01:34:00;;;;;;;0.7;0.7;;;;;;;12.2;100.0;101110;;;;
2022/11/03 01:35:00;;;;;;;0.7;0.7;;;;;;;12.1;100.0;101110;;;;
2022/11/03 01:36:00;;;;;;;0.7;0.7;;;;;;;12.1;100.0;101110;;;;
2022/11/03 01:37:00;;;;;;;0.7;0.7;;;;;;;12.2;100.0;101110;;;;
2022/11/03 01:38:00;;;;;;;0.7;0.7;;;;;;;12.2;100.0;101110;;;;
2022/11/03 01:39:00;;;;;;;0.7;0.7;;;;;;;12.3;100.0;101100;;;;
2022/11/03 01:40:00;;;;;;;0.7;0.7;;;;;;;12.3;100.0;101100;;;;
2022/11/03 01:41:00;;;;;;;0.7;0.7;;;;;;;12.3;100.0;101100;;;;
2022/11/03 01:42:00;;;;;;;0.7;0.7;;;;;;;12.3;100.0;101100;;;;
2022/11/03 01:43:10;;;;;;;0.6;0.6;;;;;;;12.2;100.0;101100;;;;
2022/11/03 01:44:07;;;;;;;0.6;0.6;;;;;;;12.2;100.0;101100;;;;
2022/11/03 01:45:00;;;;;;;0.6;0.6;;;;;;;12.3;100.0;101090;;;;
2022/11/03 01:46:02;;;;;;;0.6;0.6;;;;;;;12.3;100.0;101090;;;;
2022/11/03 01:47:00;;;;;;;0.6;0.6;;;;;;;12.3;100.0;101090;;;;
2022/11/03 01:48:00;;;;;;;0.6;0.6;;;;;;;12.3;100.0;101090;;;;
2022/11/03 01:49:03;;;;;;;0.6;0.6;;;;;;;12.2;100.0;101090;;;;
2022/11/03 01:50:03;;;;;;;0.6;0.6;;;;;;;12.2;100.0;101090;;;;
2022/11/03 01:51:01;;;;;;;0.6;0.6;;;;;;;12.2;100.0;101080;;;;
2022/11/03 01:52:10;;;;;;;0.6;0.6;;;;;;;12.2;100.0;101080;;;;
2022/11/03 01:53:00;;;;;;;0.6;0.6;;;;;;;12.3;100.0;101080;;;;
2022/11/03 01:54:03;;;;;;;0.6;0.6;;;;;;;12.3;100.0;101080;;;;
2022/11/03 01:55:02;;;;;;;0.6;0.6;;;;;;;12.2;100.0;101080;;;;
2022/11/03 01:56:01;;;;;;;0.6;0.6;;;;;;;12.2;100.0;101080;;;;
2022/11/03 01:57:03;;;;;;;0.6;0.6;;;;;;;12.2;100.0;101080;;;;
2022/11/03 01:58:04;;;;;;;0.6;0.6;;;;;;;12.2;100.0;101080;;;;
2022/11/03 01:59:00;;;;;;;0.6;0.6;;;;;;;12.2;100.0;101070;;;;
2022/11/03 02:00:00;;;;;;;0.6;0.6;;;;;;;12.2;100.0;101070;;;;
2022/11/03 02:01:00;;;;;;;0.6;0.6;;;;;;;12.2;100.0;101070;;;;
2022/11/03 02:02:00;;;;;;;0.6;0.6;;;;;;;12.2;100.0;101070;;;;
2022/11/03 02:03:00;;;;;;;0.6;0.6;;;;;;;12.2;100.0;101070;;;;
2022/11/03 02:04:07;;;;;;;0.6;0.6;;;;;;;12.2;100.0;101070;;;;
2022/11/03 02:05:01;;;;;;;0.6;0.6;;;;;;;12.1;100.0;101070;;;;
2022/11/03 02:06:01;;;;;;;0.6;0.6;;;;;;;12.1;100.0;101070;;;;
2022/11/03 02:07:10;;;;;;;0.6;0.6;;;;;;;12.1;100.0;101070;;;;
2022/11/03 02:08:04;;;;;;;0.6;0.6;;;;;;;12.1;100.0;101070;;;;
2022/11/03 02:09:02;;;;;;;0.6;0.6;;;;;;;12.2;100.0;101070;;;;
2022/11/03 02:10:00;;;;;;;0.6;0.6;;;;;;;12.2;100.0;101070;;;;
2022/11/03 02:12:05;;;;;;;0.6;0.6;;;;;;;12.2;100.0;101070;;;;
2022/11/03 02:12:08;;;;;;;0.6;0.6;;;;;;;12.2;100.0;101070;;;;
2022/11/03 02:13:01;;;;;;;0.6;0.6;;;;;;;12.2;100.0;101070;;;;
2022/11/03 02:14:00;;;;;;;0.6;0.6;;;;;;;12.2;100.0;101070;;;;
2022/11/03 02:15:03;;;;;;;0.6;0.6;;;;;;;12.2;100.0;101070;;;;
2022/11/03 02:16:00;;;;;;;0.6;0.6;;;;;;;12.2;100.0;101070;;;;
2022/11/03 02:17:02;;;;;;;0.6;0.6;;;;;;;12.2;100.0;101060;;;;
2022/11/03 02:18:01;;;;;;;0.6;0.6;;;;;;;12.2;100.0;101060;;;;
2022/11/03 02:19:01;;;;;;;0.6;0.6;;;;;;;12.2;100.0;101060;;;;
2022/11/03 02:20:02;;;;;;;0.6;0.6;;;;;;;12.2;100.0;101060;;;;
2022/11/03 02:21:03;;;;;;;0.6;0.6;;;;;;;12.2;100.0;101060;;;;
2022/11/03 02:22:10;;;;;;;0.6;0.6;;;;;;;12.2;100.0;101060;;;;
2022/11/03 02:23:00;;;;;;;0.8;0.8;;;;;;;12.2;100.0;101060;;;;
2022/11/03 02:24:05;;;;;;;0.8;0.8;;;;;;;12.2;100.0;101060;;;;
2022/11/03 02:25:10;;;;;;;0.8;0.8;;;;;;;12.2;100.0;101050;;;;
2022/11/03 02:26:00;;;;;;;0.8;0.8;;;;;;;12.2;100.0;101050;;;;
2022/11/03 02:27:00;;;;;;;0.8;0.8;;;;;;;12.3;100.0;101040;;;;
2022/11/03 02:28:01;;;;;;;0.8;0.8;;;;;;;12.3;100.0;101040;;;;
2022/11/03 02:29:00;;;;;;;0.8;0.8;;;;;;;12.3;100.0;101040;;;;
2022/11/03 02:30:00;;;;;;;0.8;0.8;;;;;;;12.3;100.0;101040;;;;
2022/11/03 02:31:10;;;;;;;0.8;0.8;;;;;;;12.3;100.0;101040;;;;
2022/11/03 02:32:06;;;;;;;0.8;0.8;;;;;;;12.3;100.0;101040;;;;
2022/11/03 02:33:10;;;;;;;0.8;0.8;;;;;;;12.3;100.0;101040;;;;
2022/11/03 02:34:01;;;;;;;0.8;0.8;;;;;;;12.3;100.0;101040;;;;
2022/11/03 02:35:04;;;;;;;0.8;0.8;;;;;;;12.2;100.0;101030;;;;
2022/11/03 02:36:01;;;;;;;0.8;0.8;;;;;;;12.2;100.0;101030;;;;
2022/11/03 02:37:04;;;;;;;0.8;0.8;;;;;;;12.3;100.0;101030;;;;
2022/11/03 02:38:02;;;;;;;0.8;0.8;;;;;;;12.3;100.0;101030;;;;
2022/11/03 02:39:05;;;;;;;0.8;0.8;;;;;;;12.2;100.0;101030;;;;
2022/11/03 02:40:03;;;;;;;0.8;0.8;;;;;;;12.2;100.0;101030;;;;
2022/11/03 02:41:03;;;;;;;0.8;0.8;;;;;;;12.3;100.0;101020;;;;
2022/11/03 02:42:01;;;;;;;0.8;0.8;;;;;;;12.3;100.0;101020;;;;
2022/11/03 02:43:01;;;;;;;0.7;0.7;;;;;;;12.3;100.0;101020;;;;
2022/11/03 02:44:00;;;;;;;0.7;0.7;;;;;;;12.3;100.0;101020;;;;
2022/11/03 02:45:02;;;;;;;0.7;0.7;;;;;;;12.3;100.0;101010;;;;
2022/11/03 02:46:02;;;;;;;0.7;0.7;;;;;;;12.3;100.0;101010;;;;
2022/11/03 02:47:02;;;;;;;0.7;0.7;;;;;;;12.3;100.0;101020;;;;
2022/11/03 02:48:01;;;;;;;0.7;0.7;;;;;;;12.3;100.0;101020;;;;
2022/11/03 02:49:00;;;;;;;0.7;0.7;;;;;;;12.3;100.0;101010;;;;
2022/11/03 02:50:03;;;;;;;0.7;0.7;;;;;;;12.3;100.0;101010;;;;
2022/11/03 02:51:01;;;;;;;0.7;0.7;;;;;;;12.3;100.0;101000;;;;
2022/11/03 02:52:00;;;;;;;0.7;0.7;;;;;;;12.3;100.0;101000;;;;
2022/11/03 02:53:00;;;;;;;0.7;0.7;;;;;;;12.4;100.0;101000;;;;
2022/11/03 02:54:00;;;;;;;0.7;0.7;;;;;;;12.4;100.0;101000;;;;
2022/11/03 02:55:08;;;;;;;0.7;0.7;;;;;;;12.4;100.0;101000;;;;
2022/11/03 02:56:00;;;;;;;0.7;0.7;;;;;;;12.4;100.0;101000;;;;
2022/11/03 02:57:05;;;;;;;0.7;0.7;;;;;;;12.3;100.0;101000;;;;
2022/11/03 02:58:06;;;;;;;0.7;0.7;;;;;;;12.3;100.0;101000;;;;
2022/11/03 02:59:01;;;;;;;0.7;0.7;;;;;;;12.5;100.0;100990;;;;
2022/11/03 03:00:04;;;;;;;0.7;0.7;;;;;;;12.5;100.0;100990;;;;
2022/11/03 03:01:00;;;;;;;0.7;0.7;;;;;;;12.4;100.0;100990;;;;
2022/11/03 03:02:05;;;;;;;0.6;0.6;;;;;;;12.4;100.0;100990;;;;
2022/11/03 03:03:01;;;;;;;0.6;0.6;;;;;;;12.5;100.0;100980;;;;
2022/11/03 03:04:02;;;;;;;0.6;0.6;;;;;;;12.5;100.0;100980;;;;
2022/11/03 03:05:02;;;;;;;0.6;0.6;;;;;;;12.5;100.0;100990;;;;
2022/11/03 03:06:03;;;;;;;0.6;0.6;;;;;;;12.5;100.0;100990;;;;
2022/11/03 03:07:01;;;;;;;0.6;0.6;;;;;;;12.5;100.0;100980;;;;
2022/11/03 03:08:02;;;;;;;0.6;0.6;;;;;;;12.5;100.0;100980;;;;
2022/11/03 03:09:02;;;;;;;0.6;0.6;;;;;;;12.5;100.0;100970;;;;
2022/11/03 03:10:10;;;;;;;0.6;0.6;;;;;;;12.5;100.0;100970;;;;
2022/11/03 03:11:02;;;;;;;0.6;0.6;;;;;;;12.5;100.0;100970;;;;
2022/11/03 03:12:01;;;;;;;0.6;0.6;;;;;;;12.5;100.0;100970;;;;
2022/11/03 03:13:01;;;;;;;0.6;0.6;;;;;;;12.5;100.0;100980;;;;
2022/11/03 03:14:00;;;;;;;0.6;0.6;;;;;;;12.5;100.0;100980;;;;
2022/11/03 03:15:01;;;;;;;0.6;0.6;;;;;;;12.6;100.0;100980;;;;
2022/11/03 03:16:05;;;;;;;0.6;0.6;;;;;;;12.6;100.0;100980;;;;
2022/11/03 03:17:03;;;;;;;0.6;0.6;;;;;;;12.5;100.0;100980;;;;
2022/11/03 03:18:06;;;;;;;0.6;0.6;;;;;;;12.5;100.0;100980;;;;
2022/11/03 03:19:03;;;;;;;0.6;0.6;;;;;;;12.4;100.0;100970;;;;
2022/11/03 03:20:03;;;;;;;0.6;0.6;;;;;;;12.4;100.0;100970;;;;
2022/11/03 03:21:03;;;;;;;0.6;0.6;;;;;;;12.6;100.0;100960;;;;
2022/11/03 03:22:02;;;;;;;1.8;1.7;;;;;;;12.6;100.0;100960;;;;
2022/11/03 03:23:11;;;;;;;1.8;1.7;;;;;;;12.6;100.0;100960;;;;
2022/11/03 03:24:02;;;;;;;1.8;1.7;;;;;;;12.6;100.0;100960;;;;
2022/11/03 03:25:05;;;;;;;1.8;1.7;;;;;;;12.6;100.0;100960;;;;
2022/11/03 03:26:09;;;;;;;1.8;1.7;;;;;;;12.6;100.0;100960;;;;
2022/11/03 03:27:02;;;;;;;1.8;1.7;;;;;;;12.6;100.0;100960;;;;
2022/11/03 03:28:03;;;;;;;1.8;1.7;;;;;;;12.6;100.0;100960;;;;
2022/11/03 03:29:04;;;;;;;1.8;1.7;;;;;;;12.6;100.0;100950;;;;
2022/11/03 03:30:03;;;;;;;1.8;1.7;;;;;;;12.6;100.0;100950;;;;
2022/11/03 03:31:01;;;;;;;1.8;1.7;;;;;;;12.6;100.0;100950;;;;
2022/11/03 03:32:02;;;;;;;1.8;1.7;;;;;;;12.6;100.0;100950;;;;
2022/11/03 03:33:01;;;;;;;1.8;1.7;;;;;;;12.5;100.0;100950;;;;
2022/11/03 03:34:10;;;;;;;1.8;1.7;;;;;;;12.5;100.0;100950;;;;
2022/11/03 03:35:02;;;;;;;1.8;1.7;;;;;;;12.5;100.0;100950;;;;
2022/11/03 03:36:02;;;;;;;1.8;1.7;;;;;;;12.5;100.0;100950;;;;
2022/11/03 03:37:00;;;;;;;1.8;1.7;;;;;;;12.5;100.0;100950;;;;
2022/11/03 03:38:02;;;;;;;1.8;1.7;;;;;;;12.5;100.0;100950;;;;
2022/11/03 03:39:02;;;;;;;1.8;1.7;;;;;;;12.5;100.0;100940;;;;
2022/11/03 03:40:02;;;;;;;1.8;1.7;;;;;;;12.5;100.0;100940;;;;
2022/11/03 03:41:01;;;;;;;1.8;1.7;;;;;;;12.5;100.0;100930;;;;
2022/11/03 03:42:01;;;;;;;0.5;0.5;;;;;;;12.5;100.0;100930;;;;
2022/11/03 03:43:01;;;;;;;0.5;0.5;;;;;;;12.6;100.0;100930;;;;
2022/11/03 03:44:04;;;;;;;0.5;0.5;;;;;;;12.6;100.0;100930;;;;
2022/11/03 03:45:00;;;;;;;0.5;0.5;;;;;;;12.6;100.0;100940;;;;
2022/11/03 03:46:03;;;;;;;0.5;0.5;;;;;;;12.6;100.0;100940;;;;
2022/11/03 03:47:03;;;;;;;0.5;0.5;;;;;;;12.7;100.0;100930;;;;
2022/11/03 03:48:00;;;;;;;0.5;0.5;;;;;;;12.7;100.0;100930;;;;
2022/11/03 03:49:00;;;;;;;0.5;0.5;;;;;;;12.6;100.0;100940;;;;
2022/11/03 03:50:00;;;;;;;0.5;0.5;;;;;;;12.6;100.0;100940;;;;
2022/11/03 03:51:00;;;;;;;0.5;0.5;;;;;;;12.5;100.0;100930;;;;
2022/11/03 03:52:00;;;;;;;0.5;0.5;;;;;;;12.5;100.0;100930;;;;
2022/11/03 03:53:01;;;;;;;0.5;0.5;;;;;;;12.6;100.0;100930;;;;
2022/11/03 03:54:00;;;;;;;0.5;0.5;;;;;;;12.6;100.0;100930;;;;
2022/11/03 03:55:00;;;;;;;0.5;0.5;;;;;;;12.6;100.0;100930;;;;
2022/11/03 03:56:00;;;;;;;0.5;0.5;;;;;;;12.6;100.0;100930;;;;
2022/11/03 03:57:01;;;;;;;0.5;0.5;;;;;;;12.6;100.0;100920;;;;
2022/11/03 03:58:00;;;;;;;0.5;0.5;;;;;;;12.6;100.0;100920;;;;
2022/11/03 03:59:00;;;;;;;0.5;0.5;;;;;;;12.6;100.0;100920;;;;
2022/11/03 04:00:00;;;;;;;0.5;0.5;;;;;;;12.6;100.0;100920;;;;
2022/11/03 04:01:00;;;;;;;0.5;0.5;;;;;;;12.5;100.0;100920;;;;
2022/11/03 04:02:01;;;;;;;0.6;0.6;;;;;;;12.5;100.0;100920;;;;
2022/11/03 04:03:00;;;;;;;0.6;0.6;;;;;;;12.6;100.0;100910;;;;
2022/11/03 04:04:00;;;;;;;0.6;0.6;;;;;;;12.6;100.0;100910;;;;
2022/11/03 04:05:00;;;;;;;0.6;0.6;;;;;;;12.6;100.0;100910;;;;
2022/11/03 04:06:00;;;;;;;0.6;0.6;;;;;;;12.6;100.0;100910;;;;
2022/11/03 04:08:00;;;;;;;0.6;0.6;;;;;;;12.6;100.0;100900;;;;
2022/11/03 04:09:00;;;;;;;0.6;0.6;;;;;;;12.6;100.0;100900;;;;
2022/11/03 04:10:00;;;;;;;0.6;0.6;;;;;;;12.6;100.0;100900;;;;
2022/11/03 04:23:00;;;;;;;0.6;0.6;;;;;;;12.6;100.0;100900;;;;
2022/11/03 04:24:00;;;;;;;0.6;0.6;;;;;;;12.6;100.0;100900;;;;
2022/11/03 04:25:00;;;;;;;0.6;0.6;;;;;;;12.6;100.0;100900;;;;
2022/11/03 04:26:00;;;;;;;0.6;0.6;;;;;;;12.6;100.0;100900;;;;
2022/11/03 04:27:04;;;;;;;0.6;0.6;;;;;;;12.6;100.0;100900;;;;
2022/11/03 04:28:00;;;;;;;0.6;0.6;;;;;;;12.6;100.0;100900;;;;
2022/11/03 04:29:00;;;;;;;0.6;0.6;;;;;;;12.6;100.0;100890;;;;
2022/11/03 04:30:10;;;;;;;0.6;0.6;;;;;;;12.6;100.0;100890;;;;
2022/11/03 04:31:00;;;;;;;0.6;0.6;;;;;;;12.6;100.0;100890;;;;
2022/11/03 04:32:00;;;;;;;0.6;0.6;;;;;;;12.6;100.0;100890;;;;
2022/11/03 04:33:00;;;;;;;0.6;0.6;;;;;;;12.6;100.0;100890;;;;
2022/11/03 04:34:02;;;;;;;0.6;0.6;;;;;;;12.6;100.0;100890;;;;
2022/11/03 04:35:00;;;;;;;0.6;0.6;;;;;;;12.7;100.0;100890;;;;
2022/11/03 04:36:00;;;;;;;0.6;0.6;;;;;;;12.7;100.0;100890;;;;
2022/11/03 04:37:00;;;;;;;0.6;0.6;;;;;;;12.6;100.0;100890;;;;
2022/11/03 04:38:02;;;;;;;0.6;0.6;;;;;;;12.6;100.0;100890;;;;
2022/11/03 04:39:00;;;;;;;0.6;0.6;;;;;;;12.5;100.0;100880;;;;
2022/11/03 04:40:00;;;;;;;0.6;0.6;;;;;;;12.5;100.0;100880;;;;
2022/11/03 04:41:02;;;;;;;0.6;0.6;;;;;;;12.5;100.0;100880;;;;
2022/11/03 04:42:00;;;;;;;0.6;0.6;;;;;;;12.5;100.0;100880;;;;
2022/11/03 04:43:00;;;;;;;0.6;0.6;;;;;;;12.5;100.0;100880;;;;
2022/11/03 04:44:00;;;;;;;0.6;0.6;;;;;;;12.5;100.0;100880;;;;
2022/11/03 04:45:01;;;;;;;0.6;0.6;;;;;;;12.6;100.0;100880;;;;
2022/11/03 04:46:00;;;;;;;0.6;0.6;;;;;;;12.6;100.0;100880;;;;
2022/11/03 04:47:00;;;;;;;0.6;0.6;;;;;;;12.5;100.0;100880;;;;
2022/11/03 04:48:01;;;;;;;0.6;0.6;;;;;;;12.5;100.0;100880;;;;
2022/11/03 04:49:00;;;;;;;0.6;0.6;;;;;;;12.5;100.0;100870;;;;
2022/11/03 04:50:00;;;;;;;0.6;0.6;;;;;;;12.5;100.0;100870;;;;
2022/11/03 04:51:01;;;;;;;0.6;0.6;;;;;;;12.5;100.0;100870;;;;
2022/11/03 04:52:00;;;;;;;0.6;0.6;;;;;;;12.5;100.0;100870;;;;
2022/11/03 04:53:00;;;;;;;0.6;0.6;;;;;;;12.5;100.0;100870;;;;
2022/11/03 04:54:02;;;;;;;0.6;0.6;;;;;;;12.5;100.0;100870;;;;
2022/11/03 04:55:00;;;;;;;0.6;0.6;;;;;;;12.5;100.0;100870;;;;
2022/11/03 04:56:07;;;;;;;0.6;0.6;;;;;;;12.5;100.0;100870;;;;
2022/11/03 04:57:04;;;;;;;0.6;0.6;;;;;;;12.5;100.0;100860;;;;
2022/11/03 04:58:03;;;;;;;0.6;0.6;;;;;;;12.5;100.0;100860;;;;
2022/11/03 04:59:00;;;;;;;0.6;0.6;;;;;;;12.4;100.0;100860;;;;
2022/11/03 05:00:00;;;;;;;0.6;0.6;;;;;;;12.4;100.0;100860;;;;
2022/11/03 05:01:01;;;;;;;0.6;0.6;;;;;;;12.4;100.0;100860;;;;
2022/11/03 05:02:00;;;;;;;0.6;0.6;;;;;;;12.4;100.0;100860;;;;
2022/11/03 05:03:00;;;;;;;0.6;0.6;;;;;;;12.5;100.0;100870;;;;
2022/11/03 05:04:00;;;;;;;0.6;0.6;;;;;;;12.5;100.0;100870;;;;
2022/11/03 05:05:00;;;;;;;0.6;0.6;;;;;;;12.5;100.0;100860;;;;
2022/11/03 05:06:08;;;;;;;0.6;0.6;;;;;;;12.5;100.0;100860;;;;
2022/11/03 05:07:00;;;;;;;0.6;0.6;;;;;;;12.4;100.0;100850;;;;
2022/11/03 05:08:00;;;;;;;0.6;0.6;;;;;;;12.4;100.0;100850;;;;
2022/11/03 05:09:04;;;;;;;0.6;0.6;;;;;;;12.4;100.0;100850;;;;
2022/11/03 05:10:00;;;;;;;0.6;0.6;;;;;;;12.4;100.0;100850;;;;
2022/11/03 05:11:00;;;;;;;0.6;0.6;;;;;;;12.5;100.0;100840;;;;
2022/11/03 05:12:00;;;;;;;0.6;0.6;;;;;;;12.5;100.0;100840;;;;
2022/11/03 05:13:00;;;;;;;0.6;0.6;;;;;;;12.5;100.0;100850;;;;
2022/11/03 05:14:01;;;;;;;0.6;0.6;;;;;;;12.5;100.0;100850;;;;
2022/11/03 05:15:06;;;;;;;0.6;0.6;;;;;;;12.4;100.0;100840;;;;
2022/11/03 05:16:02;;;;;;;0.6;0.6;;;;;;;12.4;100.0;100840;;;;
2022/11/03 05:17:01;;;;;;;0.6;0.6;;;;;;;12.5;100.0;100840;;;;
2022/11/03 05:18:03;;;;;;;0.6;0.6;;;;;;;12.5;100.0;100840;;;;
2022/11/03 05:19:00;;;;;;;0.6;0.6;;;;;;;12.5;100.0;100830;;;;
2022/11/03 05:20:01;;;;;;;0.6;0.6;;;;;;;12.5;100.0;100830;;;;
2022/11/03 05:21:01;;;;;;;0.6;0.6;;;;;;;12.5;100.0;100830;;;;
2022/11/03 05:22:01;;;;;;;0.5;0.5;;;;;;;12.5;100.0;100830;;;;
2022/11/03 05:23:00;;;;;;;0.5;0.5;;;;;;;12.6;100.0;100830;;;;
2022/11/03 05:24:01;;;;;;;0.5;0.5;;;;;;;12.6;100.0;100830;;;;
2022/11/03 05:25:02;;;;;;;0.5;0.5;;;;;;;12.6;100.0;100830;;;;
2022/11/03 05:26:00;;;;;;;0.5;0.5;;;;;;;12.6;100.0;100830;;;;
2022/11/03 05:27:00;;;;;;;0.5;0.5;;;;;;;12.5;100.0;100830;;;;
2022/11/03 05:28:00;;;;;;;0.5;0.5;;;;;;;12.5;100.0;100830;;;;
2022/11/03 05:29:03;;;;;;;0.5;0.5;;;;;;;12.5;100.0;100830;;;;
2022/11/03 05:30:01;;;;;;;0.5;0.5;;;;;;;12.5;100.0;100830;;;;
2022/11/03 05:31:00;;;;;;;0.5;0.5;;;;;;;12.5;100.0;100830;;;;
2022/11/03 05:32:00;;;;;;;0.5;0.5;;;;;;;12.5;100.0;100830;;;;
2022/11/03 05:33:00;;;;;;;0.5;0.5;;;;;;;12.4;100.0;100820;;;;
2022/11/03 05:34:02;;;;;;;0.5;0.5;;;;;;;12.4;100.0;100820;;;;
2022/11/03 05:35:00;;;;;;;0.5;0.5;;;;;;;12.5;100.0;100810;;;;
2022/11/03 05:36:02;;;;;;;0.5;0.5;;;;;;;12.5;100.0;100810;;;;
2022/11/03 05:37:10;;;;;;;0.5;0.5;;;;;;;12.5;100.0;100810;;;;
2022/11/03 05:38:01;;;;;;;0.5;0.5;;;;;;;12.5;100.0;100810;;;;
2022/11/03 05:39:10;;;;;;;0.5;0.5;;;;;;;12.5;100.0;100810;;;;
2022/11/03 05:40:00;;;;;;;0.5;0.5;;;;;;;12.5;100.0;100810;;;;
2022/11/03 05:41:00;;;;;;;0.5;0.5;;;;;;;12.6;100.0;100810;;;;
2022/11/03 05:42:01;;;;;;;0.6;0.6;;;;;;;12.6;100.0;100810;;;;
2022/11/03 05:43:01;;;;;;;0.6;0.6;;;;;;;12.5;100.0;100810;;;;
2022/11/03 05:44:01;;;;;;;0.6;0.6;;;;;;;12.5;100.0;100810;;;;
2022/11/03 05:45:01;;;;;;;0.6;0.6;;;;;;;12.5;100.0;100800;;;;
2022/11/03 05:46:02;;;;;;;0.6;0.6;;;;;;;12.5;100.0;100800;;;;
2022/11/03 05:47:05;;;;;;;0.6;0.6;;;;;;;12.5;100.0;100800;;;;
2022/11/03 05:48:02;;;;;;;0.6;0.6;;;;;;;12.5;100.0;100800;;;;
2022/11/03 05:49:01;;;;;;;0.6;0.6;;;;;;;12.5;100.0;100800;;;;
2022/11/03 05:50:06;;;;;;;0.6;0.6;;;;;;;12.5;100.0;100800;;;;
2022/11/03 05:51:01;;;;;;;0.6;0.6;;;;;;;12.5;100.0;100790;;;;
2022/11/03 05:52:00;;;;;;;0.6;0.6;;;;;;;12.5;100.0;100790;;;;
2022/11/03 05:53:04;;;;;;;0.6;0.6;;;;;;;12.5;100.0;100790;;;;
2022/11/03 05:54:02;;;;;;;0.6;0.6;;;;;;;12.5;100.0;100790;;;;
2022/11/03 05:55:01;;;;;;;0.6;0.6;;;;;;;12.5;100.0;100790;;;;
2022/11/03 05:56:02;;;;;;;0.6;0.6;;;;;;;12.5;100.0;100790;;;;
2022/11/03 05:57:00;;;;;;;0.6;0.6;;;;;;;12.6;100.0;100790;;;;
2022/11/03 05:58:04;;;;;;;0.6;0.6;;;;;;;12.6;100.0;100790;;;;
2022/11/03 05:59:00;;;;;;;0.6;0.6;;;;;;;12.5;100.0;100790;;;;
2022/11/03 06:00:00;;;;;;;0.6;0.6;;;;;;;12.5;100.0;100790;;;;
2022/11/03 06:01:02;;;;;;;0.6;0.6;;;;;;;12.6;100.0;100780;;;;
2022/11/03 06:02:00;;;;;;;1.0;1.0;;;;;;;12.6;100.0;100780;;;;
2022/11/03 06:03:00;;;;;;;1.0;1.0;;;;;;;12.6;100.0;100780;;;;
2022/11/03 06:04:03;;;;;;;1.0;1.0;;;;;;;12.6;100.0;100780;;;;
2022/11/03 06:05:00;;;;;;;1.0;1.0;;;;;;;12.5;100.0;100770;;;;
2022/11/03 06:06:00;;;;;;;1.0;1.0;;;;;;;12.5;100.0;100770;;;;
2022/11/03 06:07:02;;;;;;;1.0;1.0;;;;;;;12.4;100.0;100770;;;;
2022/11/03 06:08:01;;;;;;;1.0;1.0;;;;;;;12.4;100.0;100770;;;;
2022/11/03 06:09:02;;;;;;;1.0;1.0;;;;;;;12.4;100.0;100770;;;;
2022/11/03 06:10:00;;;;;;;1.0;1.0;;;;;;;12.4;100.0;100770;;;;
2022/11/03 06:11:01;;;;;;;1.0;1.0;;;;;;;12.4;100.0;100770;;;;
2022/11/03 06:12:01;;;;;;;1.0;1.0;;;;;;;12.4;100.0;100770;;;;
2022/11/03 06:13:02;;;;;;;1.0;1.0;;;;;;;12.4;100.0;100760;;;;
2022/11/03 06:14:00;;;;;;;1.0;1.0;;;;;;;12.4;100.0;100760;;;;
2022/11/03 06:15:00;;;;;;;1.0;1.0;;;;;;;12.3;100.0;100770;;;;
2022/11/03 06:16:01;;;;;;;1.0;1.0;;;;;;;12.3;100.0;100770;;;;
2022/11/03 06:17:04;;;;;;;1.0;1.0;;;;;;;12.4;100.0;100760;;;;
2022/11/03 06:18:09;;;;;;;1.0;1.0;;;;;;;12.4;100.0;100760;;;;
2022/11/03 06:19:02;;;;;;;1.0;1.0;;;;;;;12.4;100.0;100750;;;;
2022/11/03 06:20:00;;;;;;;1.0;1.0;;;;;;;12.4;100.0;100750;;;;
2022/11/03 06:21:04;;;;;;;1.0;1.0;;;;;;;12.3;100.0;100750;;;;
2022/11/03 06:22:04;;;;;;;0.6;0.6;;;;;;;12.3;100.0;100750;;;;
2022/11/03 06:23:00;;;;;;;0.6;0.6;;;;;;;12.3;100.0;100760;;;;
2022/11/03 06:24:00;;;;;;;0.6;0.6;;;;;;;12.3;100.0;100760;;;;
2022/11/03 06:25:08;;;;;;;0.6;0.6;;;;;;;12.2;100.0;100760;;;;
2022/11/03 06:26:01;;;;;;;0.6;0.6;;;;;;;12.2;100.0;100760;;;;
2022/11/03 06:27:00;;;;;;;0.6;0.6;;;;;;;12.2;100.0;100760;;;;
2022/11/03 06:28:02;;;;;;;0.6;0.6;;;;;;;12.2;100.0;100760;;;;
2022/11/03 06:29:00;;;;;;;0.6;0.6;;;;;;;12.1;100.0;100760;;;;
2022/11/03 06:30:01;;;;;;;0.6;0.6;;;;;;;12.1;100.0;100760;;;;
2022/11/03 06:31:00;;;;;;;0.6;0.6;;;;;;;12.2;100.0;100750;;;;
2022/11/03 06:32:00;;;;;;;0.6;0.6;;;;;;;12.2;100.0;100750;;;;
2022/11/03 06:33:06;;;;;;;0.6;0.6;;;;;;;12.3;100.0;100760;;;;
2022/11/03 06:34:00;;;;;;;0.6;0.6;;;;;;;12.3;100.0;100760;;;;
2022/11/03 06:35:00;;;;;;;0.6;0.6;;;;;;;12.3;100.0;100750;;;;
2022/11/03 06:36:05;;;;;;;0.6;0.6;;;;;;;12.3;100.0;100750;;;;
2022/11/03 06:37:09;;;;;;;0.6;0.6;;;;;;;12.3;100.0;100750;;;;
2022/11/03 06:38:00;;;;;;;0.6;0.6;;;;;;;12.3;100.0;100750;;;;
2022/11/03 06:39:01;;;;;;;0.6;0.6;;;;;;;12.2;100.0;100750;;;;
2022/11/03 06:40:10;;;;;;;0.6;0.6;;;;;;;12.2;100.0;100750;;;;